sensor_id;sensor_type;location;lat;lon;timestamp;P1;durP1;ratioP1;P2;durP2;ratioP2
20880;SDS011;10600;53.096;8.802;2023-09-08T00:00:01;11.32;;;8.73;;
20880;SDS011;10600;53.096;8.802;2023-09-08T00:01:05;15.38;;;9.13;;
20880;SDS011;10600;53.096;8.802;2023-09-08T00:02:07;10.32;;;8.30;;
20880;SDS011;10600;53.096;8.802;2023-09-08T00:03:08;13.48;;;9.27;;
20880;SDS011;10600;53.096;8.802;2023-09-08T00:04:09;10.90;;;8.63;;
20880;SDS011;10600;53.096;8.802;2023-09-08T00:05:11;11.00;;;8.48;;
20880;SDS011;10600;53.096;8.802;2023-09-08T00:06:12;12.73;;;8.75;;
20880;SDS011;10600;53.096;8.802;2023-09-08T00:07:13;12.32;;;8.35;;
20880;SDS011;10600;53.096;8.802;2023-09-08T00:08:14;12.27;;;9.57;;
20880;SDS011;10600;53.096;8.802;2023-09-08T00:09:15;11.68;;;9.00;;
20880;SDS011;10600;53.096;8.802;2023-09-08T00:10:16;14.45;;;8.85;;
20880;SDS011;10600;53.096;8.802;2023-09-08T00:11:17;11.90;;;8.40;;
20880;SDS011;10600;53.096;8.802;2023-09-08T00:12:18;12.32;;;8.73;;
20880;SDS011;10600;53.096;8.802;2023-09-08T00:13:19;11.52;;;8.80;;
20880;SDS011;10600;53.096;8.802;2023-09-08T00:14:20;10.93;;;8.35;;
20880;SDS011;10600;53.096;8.802;2023-09-08T00:15:21;9.60;;;8.48;;
20880;SDS011;10600;53.096;8.802;2023-09-08T00:16:22;12.75;;;8.30;;
20880;SDS011;10600;53.096;8.802;2023-09-08T00:17:23;14.70;;;8.57;;
20880;SDS011;10600;53.096;8.802;2023-09-08T00:18:24;10.98;;;8.75;;
20880;SDS011;10600;53.096;8.802;2023-09-08T00:19:25;13.70;;;8.93;;
20880;SDS011;10600;53.096;8.802;2023-09-08T00:20:26;11.52;;;9.05;;
20880;SDS011;10600;53.096;8.802;2023-09-08T00:21:27;16.88;;;9.88;;
20880;SDS011;10600;53.096;8.802;2023-09-08T00:22:28;12.45;;;9.90;;
20880;SDS011;10600;53.096;8.802;2023-09-08T00:23:29;11.80;;;8.90;;
20880;SDS011;10600;53.096;8.802;2023-09-08T00:24:30;12.40;;;9.85;;
20880;SDS011;10600;53.096;8.802;2023-09-08T00:25:31;12.18;;;9.90;;
20880;SDS011;10600;53.096;8.802;2023-09-08T00:26:32;12.60;;;9.20;;
20880;SDS011;10600;53.096;8.802;2023-09-08T00:27:33;12.02;;;9.65;;
20880;SDS011;10600;53.096;8.802;2023-09-08T00:28:34;10.48;;;8.90;;
20880;SDS011;10600;53.096;8.802;2023-09-08T00:29:35;11.43;;;9.73;;
20880;SDS011;10600;53.096;8.802;2023-09-08T00:30:36;14.20;;;9.80;;
20880;SDS011;10600;53.096;8.802;2023-09-08T00:31:37;11.10;;;9.60;;
20880;SDS011;10600;53.096;8.802;2023-09-08T00:32:38;12.20;;;9.20;;
20880;SDS011;10600;53.096;8.802;2023-09-08T00:33:39;13.68;;;10.23;;
20880;SDS011;10600;53.096;8.802;2023-09-08T00:34:42;13.15;;;10.15;;
20880;SDS011;10600;53.096;8.802;2023-09-08T00:35:44;12.30;;;9.13;;
20880;SDS011;10600;53.096;8.802;2023-09-08T00:36:45;12.38;;;10.32;;
20880;SDS011;10600;53.096;8.802;2023-09-08T00:37:46;13.55;;;10.35;;
20880;SDS011;10600;53.096;8.802;2023-09-08T00:38:47;11.88;;;10.30;;
20880;SDS011;10600;53.096;8.802;2023-09-08T00:39:48;13.38;;;10.63;;
20880;SDS011;10600;53.096;8.802;2023-09-08T00:40:49;12.20;;;10.10;;
20880;SDS011;10600;53.096;8.802;2023-09-08T00:41:50;12.70;;;10.07;;
20880;SDS011;10600;53.096;8.802;2023-09-08T00:42:51;13.90;;;10.45;;
20880;SDS011;10600;53.096;8.802;2023-09-08T00:43:52;13.32;;;10.82;;
20880;SDS011;10600;53.096;8.802;2023-09-08T00:44:53;11.65;;;10.07;;
20880;SDS011;10600;53.096;8.802;2023-09-08T00:45:54;16.90;;;11.10;;
20880;SDS011;10600;53.096;8.802;2023-09-08T00:46:55;14.68;;;10.13;;
20880;SDS011;10600;53.096;8.802;2023-09-08T00:47:56;15.70;;;10.93;;
20880;SDS011;10600;53.096;8.802;2023-09-08T00:48:57;14.32;;;10.75;;
20880;SDS011;10600;53.096;8.802;2023-09-08T00:49:58;15.00;;;10.60;;
20880;SDS011;10600;53.096;8.802;2023-09-08T00:50:59;15.30;;;11.20;;
20880;SDS011;10600;53.096;8.802;2023-09-08T00:52:00;12.70;;;10.63;;
20880;SDS011;10600;53.096;8.802;2023-09-08T00:53:02;11.88;;;10.60;;
20880;SDS011;10600;53.096;8.802;2023-09-08T00:54:03;11.85;;;10.43;;
20880;SDS011;10600;53.096;8.802;2023-09-08T00:55:04;12.52;;;10.25;;
20880;SDS011;10600;53.096;8.802;2023-09-08T00:56:06;13.10;;;10.30;;
20880;SDS011;10600;53.096;8.802;2023-09-08T00:57:07;14.85;;;11.38;;
20880;SDS011;10600;53.096;8.802;2023-09-08T00:58:09;13.15;;;10.88;;
20880;SDS011;10600;53.096;8.802;2023-09-08T00:59:11;13.00;;;10.52;;
20880;SDS011;10600;53.096;8.802;2023-09-08T01:00:12;12.13;;;10.73;;
20880;SDS011;10600;53.096;8.802;2023-09-08T01:01:14;12.45;;;10.52;;
20880;SDS011;10600;53.096;8.802;2023-09-08T01:02:17;15.10;;;11.00;;
20880;SDS011;10600;53.096;8.802;2023-09-08T01:03:18;14.80;;;11.10;;
20880;SDS011;10600;53.096;8.802;2023-09-08T01:04:20;16.33;;;11.60;;
20880;SDS011;10600;53.096;8.802;2023-09-08T01:05:21;13.70;;;11.65;;
20880;SDS011;10600;53.096;8.802;2023-09-08T01:06:22;14.60;;;10.82;;
20880;SDS011;10600;53.096;8.802;2023-09-08T01:07:24;12.90;;;11.25;;
20880;SDS011;10600;53.096;8.802;2023-09-08T01:08:27;14.57;;;10.93;;
20880;SDS011;10600;53.096;8.802;2023-09-08T01:09:29;12.68;;;11.38;;
20880;SDS011;10600;53.096;8.802;2023-09-08T01:10:30;13.73;;;11.13;;
20880;SDS011;10600;53.096;8.802;2023-09-08T01:11:31;12.77;;;10.70;;
20880;SDS011;10600;53.096;8.802;2023-09-08T01:12:32;13.68;;;11.27;;
20880;SDS011;10600;53.096;8.802;2023-09-08T01:13:34;14.85;;;11.55;;
20880;SDS011;10600;53.096;8.802;2023-09-08T01:14:35;12.52;;;10.73;;
20880;SDS011;10600;53.096;8.802;2023-09-08T01:15:36;12.35;;;10.70;;
20880;SDS011;10600;53.096;8.802;2023-09-08T01:16:37;14.07;;;11.20;;
20880;SDS011;10600;53.096;8.802;2023-09-08T01:17:40;14.38;;;11.40;;
20880;SDS011;10600;53.096;8.802;2023-09-08T01:18:41;13.85;;;10.35;;
20880;SDS011;10600;53.096;8.802;2023-09-08T01:19:42;14.60;;;10.43;;
20880;SDS011;10600;53.096;8.802;2023-09-08T01:24:30;13.63;;;10.65;;
20880;SDS011;10600;53.096;8.802;2023-09-08T01:25:32;12.40;;;9.82;;
20880;SDS011;10600;53.096;8.802;2023-09-08T01:26:37;16.48;;;10.68;;
20880;SDS011;10600;53.096;8.802;2023-09-08T01:27:43;14.68;;;10.52;;
20880;SDS011;10600;53.096;8.802;2023-09-08T01:28:46;16.80;;;11.70;;
20880;SDS011;10600;53.096;8.802;2023-09-08T01:29:49;18.58;;;11.68;;
20880;SDS011;10600;53.096;8.802;2023-09-08T01:30:51;14.23;;;11.23;;
20880;SDS011;10600;53.096;8.802;2023-09-08T01:31:53;11.90;;;10.02;;
20880;SDS011;10600;53.096;8.802;2023-09-08T01:32:54;12.68;;;9.88;;
20880;SDS011;10600;53.096;8.802;2023-09-08T01:33:56;12.30;;;10.15;;
20880;SDS011;10600;53.096;8.802;2023-09-08T01:34:57;12.95;;;10.63;;
20880;SDS011;10600;53.096;8.802;2023-09-08T01:35:59;13.27;;;10.05;;
20880;SDS011;10600;53.096;8.802;2023-09-08T01:37:00;11.88;;;9.45;;
20880;SDS011;10600;53.096;8.802;2023-09-08T01:38:04;12.27;;;10.45;;
20880;SDS011;10600;53.096;8.802;2023-09-08T01:39:05;11.98;;;10.07;;
20880;SDS011;10600;53.096;8.802;2023-09-08T01:40:06;13.82;;;9.98;;
20880;SDS011;10600;53.096;8.802;2023-09-08T01:41:07;12.43;;;9.85;;
20880;SDS011;10600;53.096;8.802;2023-09-08T01:42:09;14.48;;;10.82;;
20880;SDS011;10600;53.096;8.802;2023-09-08T01:43:10;12.38;;;10.68;;
20880;SDS011;10600;53.096;8.802;2023-09-08T01:44:11;12.35;;;10.23;;
20880;SDS011;10600;53.096;8.802;2023-09-08T01:45:12;15.07;;;9.90;;
20880;SDS011;10600;53.096;8.802;2023-09-08T01:46:13;11.48;;;10.25;;
20880;SDS011;10600;53.096;8.802;2023-09-08T01:47:15;13.57;;;10.60;;
20880;SDS011;10600;53.096;8.802;2023-09-08T01:48:16;13.02;;;10.73;;
20880;SDS011;10600;53.096;8.802;2023-09-08T01:49:17;14.98;;;10.35;;
20880;SDS011;10600;53.096;8.802;2023-09-08T01:50:18;15.02;;;9.80;;
20880;SDS011;10600;53.096;8.802;2023-09-08T01:51:22;13.60;;;10.00;;
20880;SDS011;10600;53.096;8.802;2023-09-08T01:52:23;12.90;;;10.07;;
20880;SDS011;10600;53.096;8.802;2023-09-08T01:53:24;13.60;;;10.10;;
20880;SDS011;10600;53.096;8.802;2023-09-08T01:54:25;12.75;;;10.30;;
20880;SDS011;10600;53.096;8.802;2023-09-08T01:55:26;13.25;;;10.13;;
20880;SDS011;10600;53.096;8.802;2023-09-08T01:56:27;13.10;;;10.57;;
20880;SDS011;10600;53.096;8.802;2023-09-08T01:57:28;12.77;;;9.70;;
20880;SDS011;10600;53.096;8.802;2023-09-08T01:58:29;11.73;;;9.63;;
20880;SDS011;10600;53.096;8.802;2023-09-08T01:59:32;14.82;;;9.50;;
20880;SDS011;10600;53.096;8.802;2023-09-08T02:00:33;13.55;;;10.13;;
20880;SDS011;10600;53.096;8.802;2023-09-08T02:01:34;18.65;;;10.60;;
20880;SDS011;10600;53.096;8.802;2023-09-08T02:02:36;13.95;;;9.70;;
20880;SDS011;10600;53.096;8.802;2023-09-08T02:03:37;13.82;;;10.60;;
20880;SDS011;10600;53.096;8.802;2023-09-08T02:04:38;11.27;;;10.07;;
20880;SDS011;10600;53.096;8.802;2023-09-08T02:05:39;12.98;;;10.05;;
20880;SDS011;10600;53.096;8.802;2023-09-08T02:06:40;12.25;;;8.90;;
20880;SDS011;10600;53.096;8.802;2023-09-08T02:07:41;12.93;;;9.32;;
20880;SDS011;10600;53.096;8.802;2023-09-08T02:08:42;12.35;;;9.40;;
20880;SDS011;10600;53.096;8.802;2023-09-08T02:09:43;12.18;;;9.75;;
20880;SDS011;10600;53.096;8.802;2023-09-08T02:10:44;12.07;;;9.27;;
20880;SDS011;10600;53.096;8.802;2023-09-08T02:11:45;11.93;;;9.68;;
20880;SDS011;10600;53.096;8.802;2023-09-08T02:12:46;14.95;;;9.15;;
20880;SDS011;10600;53.096;8.802;2023-09-08T02:13:47;12.00;;;9.80;;
20880;SDS011;10600;53.096;8.802;2023-09-08T02:14:48;13.27;;;9.52;;
20880;SDS011;10600;53.096;8.802;2023-09-08T02:15:49;11.68;;;9.02;;
20880;SDS011;10600;53.096;8.802;2023-09-08T02:16:51;11.55;;;9.55;;
20880;SDS011;10600;53.096;8.802;2023-09-08T02:17:52;14.07;;;10.45;;
20880;SDS011;10600;53.096;8.802;2023-09-08T02:18:55;10.85;;;9.05;;
20880;SDS011;10600;53.096;8.802;2023-09-08T02:19:56;14.07;;;9.40;;
20880;SDS011;10600;53.096;8.802;2023-09-08T02:20:56;11.82;;;9.43;;
20880;SDS011;10600;53.096;8.802;2023-09-08T02:21:58;13.18;;;9.32;;
20880;SDS011;10600;53.096;8.802;2023-09-08T02:23:03;11.60;;;10.15;;
20880;SDS011;10600;53.096;8.802;2023-09-08T02:24:04;13.25;;;9.90;;
20880;SDS011;10600;53.096;8.802;2023-09-08T02:25:05;14.55;;;9.80;;
20880;SDS011;10600;53.096;8.802;2023-09-08T02:26:06;11.02;;;9.27;;
20880;SDS011;10600;53.096;8.802;2023-09-08T02:27:07;13.57;;;10.43;;
20880;SDS011;10600;53.096;8.802;2023-09-08T02:28:08;15.85;;;10.05;;
20880;SDS011;10600;53.096;8.802;2023-09-08T02:29:09;11.75;;;9.95;;
20880;SDS011;10600;53.096;8.802;2023-09-08T02:30:10;12.48;;;10.45;;
20880;SDS011;10600;53.096;8.802;2023-09-08T02:31:12;10.88;;;9.70;;
20880;SDS011;10600;53.096;8.802;2023-09-08T02:32:12;13.90;;;9.80;;
20880;SDS011;10600;53.096;8.802;2023-09-08T02:33:14;13.35;;;10.60;;
20880;SDS011;10600;53.096;8.802;2023-09-08T02:34:15;15.00;;;10.43;;
20880;SDS011;10600;53.096;8.802;2023-09-08T02:35:16;12.90;;;10.95;;
20880;SDS011;10600;53.096;8.802;2023-09-08T02:36:17;12.70;;;10.10;;
20880;SDS011;10600;53.096;8.802;2023-09-08T02:37:25;13.10;;;10.45;;
20880;SDS011;10600;53.096;8.802;2023-09-08T02:38:26;16.98;;;10.77;;
20880;SDS011;10600;53.096;8.802;2023-09-08T02:39:27;17.23;;;11.30;;
20880;SDS011;10600;53.096;8.802;2023-09-08T02:40:28;12.90;;;10.85;;
20880;SDS011;10600;53.096;8.802;2023-09-08T02:41:29;12.23;;;10.38;;
20880;SDS011;10600;53.096;8.802;2023-09-08T02:42:30;13.73;;;10.77;;
20880;SDS011;10600;53.096;8.802;2023-09-08T02:43:31;12.82;;;10.60;;
20880;SDS011;10600;53.096;8.802;2023-09-08T02:44:32;12.13;;;10.57;;
20880;SDS011;10600;53.096;8.802;2023-09-08T02:45:33;13.20;;;11.13;;
20880;SDS011;10600;53.096;8.802;2023-09-08T02:46:34;13.23;;;11.55;;
20880;SDS011;10600;53.096;8.802;2023-09-08T02:47:35;13.43;;;10.88;;
20880;SDS011;10600;53.096;8.802;2023-09-08T02:48:36;14.23;;;10.65;;
20880;SDS011;10600;53.096;8.802;2023-09-08T02:49:37;17.45;;;11.23;;
20880;SDS011;10600;53.096;8.802;2023-09-08T02:50:38;17.73;;;11.60;;
20880;SDS011;10600;53.096;8.802;2023-09-08T02:51:39;14.07;;;11.10;;
20880;SDS011;10600;53.096;8.802;2023-09-08T02:52:40;14.35;;;11.43;;
20880;SDS011;10600;53.096;8.802;2023-09-08T02:53:41;15.60;;;10.73;;
20880;SDS011;10600;53.096;8.802;2023-09-08T02:54:42;13.38;;;11.55;;
20880;SDS011;10600;53.096;8.802;2023-09-08T02:55:42;15.27;;;10.85;;
20880;SDS011;10600;53.096;8.802;2023-09-08T02:56:43;14.60;;;10.45;;
20880;SDS011;10600;53.096;8.802;2023-09-08T02:57:44;12.52;;;10.43;;
20880;SDS011;10600;53.096;8.802;2023-09-08T02:58:45;13.90;;;11.38;;
20880;SDS011;10600;53.096;8.802;2023-09-08T02:59:49;12.88;;;10.70;;
20880;SDS011;10600;53.096;8.802;2023-09-08T03:00:56;15.40;;;11.48;;
20880;SDS011;10600;53.096;8.802;2023-09-08T03:01:57;12.88;;;10.73;;
20880;SDS011;10600;53.096;8.802;2023-09-08T03:02:59;15.57;;;11.30;;
20880;SDS011;10600;53.096;8.802;2023-09-08T03:04:00;12.93;;;9.93;;
20880;SDS011;10600;53.096;8.802;2023-09-08T03:05:01;14.15;;;10.50;;
20880;SDS011;10600;53.096;8.802;2023-09-08T03:06:02;14.10;;;10.82;;
20880;SDS011;10600;53.096;8.802;2023-09-08T03:07:03;15.23;;;10.05;;
20880;SDS011;10600;53.096;8.802;2023-09-08T03:08:04;13.88;;;10.43;;
20880;SDS011;10600;53.096;8.802;2023-09-08T03:09:05;13.95;;;10.80;;
20880;SDS011;10600;53.096;8.802;2023-09-08T03:10:06;13.45;;;10.50;;
20880;SDS011;10600;53.096;8.802;2023-09-08T03:11:07;15.98;;;11.38;;
20880;SDS011;10600;53.096;8.802;2023-09-08T03:12:09;14.38;;;10.73;;
20880;SDS011;10600;53.096;8.802;2023-09-08T03:13:09;14.48;;;11.27;;
20880;SDS011;10600;53.096;8.802;2023-09-08T03:14:10;13.80;;;10.80;;
20880;SDS011;10600;53.096;8.802;2023-09-08T03:15:11;14.70;;;11.25;;
20880;SDS011;10600;53.096;8.802;2023-09-08T03:16:12;15.60;;;10.60;;
20880;SDS011;10600;53.096;8.802;2023-09-08T03:17:13;16.17;;;11.05;;
20880;SDS011;10600;53.096;8.802;2023-09-08T03:18:14;13.70;;;10.70;;
20880;SDS011;10600;53.096;8.802;2023-09-08T03:19:15;13.52;;;10.40;;
20880;SDS011;10600;53.096;8.802;2023-09-08T03:20:16;15.13;;;11.65;;
20880;SDS011;10600;53.096;8.802;2023-09-08T03:21:17;16.95;;;10.98;;
20880;SDS011;10600;53.096;8.802;2023-09-08T03:22:18;15.48;;;10.73;;
20880;SDS011;10600;53.096;8.802;2023-09-08T03:23:19;13.10;;;11.38;;
20880;SDS011;10600;53.096;8.802;2023-09-08T03:24:20;14.90;;;10.57;;
20880;SDS011;10600;53.096;8.802;2023-09-08T03:25:21;15.25;;;10.85;;
20880;SDS011;10600;53.096;8.802;2023-09-08T03:26:22;14.15;;;10.60;;
20880;SDS011;10600;53.096;8.802;2023-09-08T03:27:23;12.02;;;10.52;;
20880;SDS011;10600;53.096;8.802;2023-09-08T03:28:24;12.85;;;10.77;;
20880;SDS011;10600;53.096;8.802;2023-09-08T03:29:25;13.18;;;10.60;;
20880;SDS011;10600;53.096;8.802;2023-09-08T03:30:26;15.23;;;10.60;;
20880;SDS011;10600;53.096;8.802;2023-09-08T03:31:27;13.65;;;10.52;;
20880;SDS011;10600;53.096;8.802;2023-09-08T03:32:28;14.77;;;10.88;;
20880;SDS011;10600;53.096;8.802;2023-09-08T03:33:29;17.38;;;11.45;;
20880;SDS011;10600;53.096;8.802;2023-09-08T03:34:30;14.32;;;11.07;;
20880;SDS011;10600;53.096;8.802;2023-09-08T03:35:32;15.65;;;11.27;;
20880;SDS011;10600;53.096;8.802;2023-09-08T03:36:32;14.45;;;11.13;;
20880;SDS011;10600;53.096;8.802;2023-09-08T03:37:35;15.85;;;10.63;;
20880;SDS011;10600;53.096;8.802;2023-09-08T03:38:36;15.95;;;11.75;;
20880;SDS011;10600;53.096;8.802;2023-09-08T03:39:38;15.07;;;11.20;;
20880;SDS011;10600;53.096;8.802;2023-09-08T03:40:39;15.80;;;11.68;;
20880;SDS011;10600;53.096;8.802;2023-09-08T03:41:39;15.85;;;11.55;;
20880;SDS011;10600;53.096;8.802;2023-09-08T03:42:40;14.43;;;11.60;;
20880;SDS011;10600;53.096;8.802;2023-09-08T03:43:42;14.45;;;11.23;;
20880;SDS011;10600;53.096;8.802;2023-09-08T03:44:43;14.98;;;11.35;;
20880;SDS011;10600;53.096;8.802;2023-09-08T03:45:44;13.02;;;10.80;;
20880;SDS011;10600;53.096;8.802;2023-09-08T03:46:46;13.15;;;10.70;;
20880;SDS011;10600;53.096;8.802;2023-09-08T03:47:47;15.05;;;10.57;;
20880;SDS011;10600;53.096;8.802;2023-09-08T03:48:47;16.80;;;11.60;;
20880;SDS011;10600;53.096;8.802;2023-09-08T03:49:49;15.10;;;11.15;;
20880;SDS011;10600;53.096;8.802;2023-09-08T03:50:50;16.13;;;11.00;;
20880;SDS011;10600;53.096;8.802;2023-09-08T03:51:51;12.35;;;10.93;;
20880;SDS011;10600;53.096;8.802;2023-09-08T03:52:52;13.73;;;11.18;;
20880;SDS011;10600;53.096;8.802;2023-09-08T03:53:53;16.00;;;11.32;;
20880;SDS011;10600;53.096;8.802;2023-09-08T03:54:54;13.65;;;10.68;;
20880;SDS011;10600;53.096;8.802;2023-09-08T03:55:55;12.45;;;10.50;;
20880;SDS011;10600;53.096;8.802;2023-09-08T03:56:56;13.95;;;10.93;;
20880;SDS011;10600;53.096;8.802;2023-09-08T03:57:57;13.75;;;11.52;;
20880;SDS011;10600;53.096;8.802;2023-09-08T03:58:58;13.82;;;11.10;;
20880;SDS011;10600;53.096;8.802;2023-09-08T03:59:59;13.57;;;11.50;;
20880;SDS011;10600;53.096;8.802;2023-09-08T04:01:00;14.73;;;11.07;;
20880;SDS011;10600;53.096;8.802;2023-09-08T04:02:01;14.20;;;11.20;;
20880;SDS011;10600;53.096;8.802;2023-09-08T04:03:02;14.95;;;11.65;;
20880;SDS011;10600;53.096;8.802;2023-09-08T04:04:03;14.60;;;11.55;;
20880;SDS011;10600;53.096;8.802;2023-09-08T04:05:05;14.93;;;11.23;;
20880;SDS011;10600;53.096;8.802;2023-09-08T04:06:06;16.25;;;11.77;;
20880;SDS011;10600;53.096;8.802;2023-09-08T04:07:09;16.40;;;11.75;;
20880;SDS011;10600;53.096;8.802;2023-09-08T04:08:10;16.17;;;12.43;;
20880;SDS011;10600;53.096;8.802;2023-09-08T04:09:11;15.25;;;12.15;;
20880;SDS011;10600;53.096;8.802;2023-09-08T04:10:12;15.85;;;11.27;;
20880;SDS011;10600;53.096;8.802;2023-09-08T04:11:13;15.45;;;11.80;;
20880;SDS011;10600;53.096;8.802;2023-09-08T04:12:14;16.27;;;12.63;;
20880;SDS011;10600;53.096;8.802;2023-09-08T04:13:15;17.65;;;12.57;;
20880;SDS011;10600;53.096;8.802;2023-09-08T04:14:16;14.50;;;11.90;;
20880;SDS011;10600;53.096;8.802;2023-09-08T04:15:17;16.77;;;12.73;;
20880;SDS011;10600;53.096;8.802;2023-09-08T04:16:20;14.20;;;11.93;;
20880;SDS011;10600;53.096;8.802;2023-09-08T04:17:21;15.18;;;12.50;;
20880;SDS011;10600;53.096;8.802;2023-09-08T04:18:22;15.57;;;11.52;;
20880;SDS011;10600;53.096;8.802;2023-09-08T04:19:23;17.35;;;12.05;;
20880;SDS011;10600;53.096;8.802;2023-09-08T04:20:24;14.75;;;11.57;;
20880;SDS011;10600;53.096;8.802;2023-09-08T04:21:25;14.65;;;11.90;;
20880;SDS011;10600;53.096;8.802;2023-09-08T04:22:26;17.58;;;12.35;;
20880;SDS011;10600;53.096;8.802;2023-09-08T04:23:27;16.20;;;11.75;;
20880;SDS011;10600;53.096;8.802;2023-09-08T04:24:28;15.38;;;12.38;;
20880;SDS011;10600;53.096;8.802;2023-09-08T04:25:29;14.52;;;11.95;;
20880;SDS011;10600;53.096;8.802;2023-09-08T04:26:31;15.13;;;12.77;;
20880;SDS011;10600;53.096;8.802;2023-09-08T04:27:35;15.82;;;12.13;;
20880;SDS011;10600;53.096;8.802;2023-09-08T04:28:36;15.07;;;12.57;;
20880;SDS011;10600;53.096;8.802;2023-09-08T04:29:37;14.52;;;11.63;;
20880;SDS011;10600;53.096;8.802;2023-09-08T04:30:38;15.05;;;12.07;;
20880;SDS011;10600;53.096;8.802;2023-09-08T04:31:39;14.75;;;12.57;;
20880;SDS011;10600;53.096;8.802;2023-09-08T04:32:40;16.30;;;11.63;;
20880;SDS011;10600;53.096;8.802;2023-09-08T04:33:41;15.20;;;11.90;;
20880;SDS011;10600;53.096;8.802;2023-09-08T04:34:42;15.00;;;12.40;;
20880;SDS011;10600;53.096;8.802;2023-09-08T04:35:43;15.40;;;11.45;;
20880;SDS011;10600;53.096;8.802;2023-09-08T04:36:44;16.15;;;12.45;;
20880;SDS011;10600;53.096;8.802;2023-09-08T04:37:45;23.42;;;13.10;;
20880;SDS011;10600;53.096;8.802;2023-09-08T04:38:46;17.45;;;12.77;;
20880;SDS011;10600;53.096;8.802;2023-09-08T04:39:47;14.68;;;12.63;;
20880;SDS011;10600;53.096;8.802;2023-09-08T04:40:48;16.38;;;11.60;;
20880;SDS011;10600;53.096;8.802;2023-09-08T04:41:49;16.10;;;12.48;;
20880;SDS011;10600;53.096;8.802;2023-09-08T04:42:50;16.85;;;12.52;;
20880;SDS011;10600;53.096;8.802;2023-09-08T04:43:51;14.68;;;11.75;;
20880;SDS011;10600;53.096;8.802;2023-09-08T04:44:53;16.63;;;12.48;;
20880;SDS011;10600;53.096;8.802;2023-09-08T04:45:54;18.35;;;11.45;;
20880;SDS011;10600;53.096;8.802;2023-09-08T04:46:56;15.30;;;11.75;;
20880;SDS011;10600;53.096;8.802;2023-09-08T04:47:57;15.05;;;11.55;;
20880;SDS011;10600;53.096;8.802;2023-09-08T04:48:58;15.35;;;12.40;;
20880;SDS011;10600;53.096;8.802;2023-09-08T04:49:59;16.02;;;11.30;;
20880;SDS011;10600;53.096;8.802;2023-09-08T04:51:00;16.05;;;11.52;;
20880;SDS011;10600;53.096;8.802;2023-09-08T04:52:01;15.60;;;12.15;;
20880;SDS011;10600;53.096;8.802;2023-09-08T04:53:02;15.45;;;11.60;;
20880;SDS011;10600;53.096;8.802;2023-09-08T04:54:03;18.05;;;11.75;;
20880;SDS011;10600;53.096;8.802;2023-09-08T04:55:04;14.50;;;12.00;;
20880;SDS011;10600;53.096;8.802;2023-09-08T04:56:05;19.00;;;12.13;;
20880;SDS011;10600;53.096;8.802;2023-09-08T04:57:07;14.05;;;11.77;;
20880;SDS011;10600;53.096;8.802;2023-09-08T04:58:08;15.95;;;12.00;;
20880;SDS011;10600;53.096;8.802;2023-09-08T04:59:09;15.95;;;11.25;;
20880;SDS011;10600;53.096;8.802;2023-09-08T05:00:10;17.58;;;11.82;;
20880;SDS011;10600;53.096;8.802;2023-09-08T05:01:11;15.00;;;12.00;;
20880;SDS011;10600;53.096;8.802;2023-09-08T05:02:12;16.60;;;11.00;;
20880;SDS011;10600;53.096;8.802;2023-09-08T05:03:13;17.50;;;11.77;;
20880;SDS011;10600;53.096;8.802;2023-09-08T05:04:14;15.10;;;11.30;;
20880;SDS011;10600;53.096;8.802;2023-09-08T05:05:15;15.93;;;11.50;;
20880;SDS011;10600;53.096;8.802;2023-09-08T05:06:16;18.70;;;12.55;;
20880;SDS011;10600;53.096;8.802;2023-09-08T05:07:17;13.40;;;11.27;;
20880;SDS011;10600;53.096;8.802;2023-09-08T05:08:19;14.60;;;10.85;;
20880;SDS011;10600;53.096;8.802;2023-09-08T05:09:19;16.88;;;11.15;;
20880;SDS011;10600;53.096;8.802;2023-09-08T05:10:20;14.05;;;11.13;;
20880;SDS011;10600;53.096;8.802;2023-09-08T05:11:21;15.00;;;11.85;;
20880;SDS011;10600;53.096;8.802;2023-09-08T05:12:22;14.80;;;12.15;;
20880;SDS011;10600;53.096;8.802;2023-09-08T05:13:23;19.17;;;12.10;;
20880;SDS011;10600;53.096;8.802;2023-09-08T05:14:26;16.38;;;11.05;;
20880;SDS011;10600;53.096;8.802;2023-09-08T05:15:28;24.02;;;12.70;;
20880;SDS011;10600;53.096;8.802;2023-09-08T05:16:30;17.05;;;12.07;;
20880;SDS011;10600;53.096;8.802;2023-09-08T05:17:45;20.83;;;11.57;;
20880;SDS011;10600;53.096;8.802;2023-09-08T05:18:46;19.27;;;12.18;;
20880;SDS011;10600;53.096;8.802;2023-09-08T05:19:47;19.92;;;12.05;;
20880;SDS011;10600;53.096;8.802;2023-09-08T05:20:48;17.65;;;11.75;;
20880;SDS011;10600;53.096;8.802;2023-09-08T05:21:53;14.73;;;10.95;;
20880;SDS011;10600;53.096;8.802;2023-09-08T05:22:54;20.15;;;11.93;;
20880;SDS011;10600;53.096;8.802;2023-09-08T05:23:55;16.75;;;11.77;;
20880;SDS011;10600;53.096;8.802;2023-09-08T05:24:56;18.88;;;11.93;;
20880;SDS011;10600;53.096;8.802;2023-09-08T05:25:57;14.63;;;11.70;;
20880;SDS011;10600;53.096;8.802;2023-09-08T05:26:58;19.17;;;11.65;;
20880;SDS011;10600;53.096;8.802;2023-09-08T05:27:59;16.08;;;11.38;;
20880;SDS011;10600;53.096;8.802;2023-09-08T05:29:00;16.67;;;11.52;;
20880;SDS011;10600;53.096;8.802;2023-09-08T05:30:01;16.88;;;12.00;;
20880;SDS011;10600;53.096;8.802;2023-09-08T05:31:02;16.08;;;12.25;;
20880;SDS011;10600;53.096;8.802;2023-09-08T05:32:04;17.10;;;11.32;;
20880;SDS011;10600;53.096;8.802;2023-09-08T05:33:05;17.80;;;12.18;;
20880;SDS011;10600;53.096;8.802;2023-09-08T05:34:07;14.32;;;11.20;;
20880;SDS011;10600;53.096;8.802;2023-09-08T05:35:08;15.45;;;10.82;;
20880;SDS011;10600;53.096;8.802;2023-09-08T05:36:09;17.33;;;11.52;;
20880;SDS011;10600;53.096;8.802;2023-09-08T05:37:10;16.38;;;11.40;;
20880;SDS011;10600;53.096;8.802;2023-09-08T05:38:11;19.55;;;12.00;;
20880;SDS011;10600;53.096;8.802;2023-09-08T05:39:13;16.27;;;11.68;;
20880;SDS011;10600;53.096;8.802;2023-09-08T05:40:14;17.92;;;11.52;;
20880;SDS011;10600;53.096;8.802;2023-09-08T05:41:15;17.55;;;11.35;;
20880;SDS011;10600;53.096;8.802;2023-09-08T05:42:16;14.60;;;10.68;;
20880;SDS011;10600;53.096;8.802;2023-09-08T05:43:17;19.13;;;11.25;;
20880;SDS011;10600;53.096;8.802;2023-09-08T05:44:18;15.80;;;11.38;;
20880;SDS011;10600;53.096;8.802;2023-09-08T05:45:19;17.45;;;11.25;;
20880;SDS011;10600;53.096;8.802;2023-09-08T05:46:20;17.55;;;11.55;;
20880;SDS011;10600;53.096;8.802;2023-09-08T05:47:21;15.50;;;11.10;;
20880;SDS011;10600;53.096;8.802;2023-09-08T05:48:22;17.23;;;11.27;;
20880;SDS011;10600;53.096;8.802;2023-09-08T05:49:23;13.40;;;10.95;;
20880;SDS011;10600;53.096;8.802;2023-09-08T05:50:25;16.90;;;11.18;;
20880;SDS011;10600;53.096;8.802;2023-09-08T05:51:26;16.55;;;11.25;;
20880;SDS011;10600;53.096;8.802;2023-09-08T05:52:27;14.63;;;11.18;;
20880;SDS011;10600;53.096;8.802;2023-09-08T05:53:28;16.52;;;10.80;;
20880;SDS011;10600;53.096;8.802;2023-09-08T05:54:29;14.95;;;10.93;;
20880;SDS011;10600;53.096;8.802;2023-09-08T05:55:30;14.30;;;11.27;;
20880;SDS011;10600;53.096;8.802;2023-09-08T05:56:31;19.23;;;12.48;;
20880;SDS011;10600;53.096;8.802;2023-09-08T05:57:32;15.15;;;11.20;;
20880;SDS011;10600;53.096;8.802;2023-09-08T05:58:34;17.63;;;11.25;;
20880;SDS011;10600;53.096;8.802;2023-09-08T05:59:36;16.77;;;12.20;;
20880;SDS011;10600;53.096;8.802;2023-09-08T06:00:37;17.75;;;11.00;;
20880;SDS011;10600;53.096;8.802;2023-09-08T06:01:38;13.75;;;11.30;;
20880;SDS011;10600;53.096;8.802;2023-09-08T06:02:39;16.05;;;12.07;;